This is the latest recevied weather packets stored in our database for station/object IK6ZNK-3. If no packets are shown the sender has not sent any weather packets the latest 10 day(s).
| Time | Temp. | Humidity | Pressure | Rain* | Wind** | Luminosity | Snow |
|---|---|---|---|---|---|---|---|
| 1777840806 | 17.22° C | 49% | 1010.2 hPa | 0 mm | - | - | - |
| 1777840206 | 16.67° C | 55% | 1010.3 hPa | 0 mm | - | - | - |
| 1777839607 | 16.67° C | 55% | 1010.2 hPa | 0 mm | - | - | - |
| 1777839006 | 17.22° C | 54% | 1010.2 hPa | 0 mm | - | - | - |
| 1777838407 | 16.67° C | 55% | 1010.2 hPa | 0 mm | - | - | - |
| 1777837806 | 16.67° C | 55% | 1010.4 hPa | 0 mm | - | - | - |
| 1777837206 | 17.22° C | 53% | 1010.2 hPa | 0 mm | - | - | - |
| 1777836606 | 17.78° C | 53% | 1010.1 hPa | 0 mm | - | - | - |
| 1777836006 | 17.78° C | 52% | 1010 hPa | 0 mm | - | - | - |
| 1777835406 | 17.78° C | 51% | 1010.1 hPa | 0 mm | - | - | - |
| 1777834807 | 17.78° C | 51% | 1010 hPa | 0 mm | - | - | - |
| 1777834207 | 17.78° C | 51% | 1010 hPa | 0 mm | - | - | - |
| 1777833607 | 17.78° C | 52% | 1010 hPa | 0 mm | - | - | - |
| 1777833007 | 17.78° C | 52% | 1010 hPa | 0 mm | - | - | - |
| 1777832406 | 17.78° C | 52% | 1009.9 hPa | 0 mm | - | - | - |
| 1777831806 | 17.78° C | 53% | 1009.8 hPa | 0 mm | - | - | - |
| 1777831206 | 17.78° C | 53% | 1009.8 hPa | 0 mm | - | - | - |
| 1777830607 | 17.78° C | 54% | 1009.7 hPa | 0 mm | - | - | - |
| 1777830007 | 18.33° C | 54% | 1009.7 hPa | 0 mm | - | - | - |
| 1777829407 | 18.89° C | 53% | 1009.8 hPa | 0 mm | - | - | - |
| 1777828806 | 19.44° C | 50% | 1009.5 hPa | 0 mm | - | - | - |
| 1777828206 | 19.44° C | 48% | 1009.7 hPa | 0 mm | - | - | - |
| 1777827606 | 19.44° C | 50% | 1009.5 hPa | 0 mm | - | - | - |
| 1777827006 | 19.44° C | 50% | 1009.7 hPa | 0 mm | - | - | - |
| 1777826407 | 20.56° C | 47% | 1009.6 hPa | 0 mm | - | - | - |
* Rain latest hour (hover to see other rain measurements)
** Current wind speed in m/s (hover to see current wind gust speed)